John C. Munro Hamilton International Airport
CYHM : now visible

Airfield :











YOU CAN JOIN US ON...

 
LOGIN :

Register | Disclaimer

   EN    FR    IT 

 









Legend :    VFR   Marginal VFR   IFR   Intensive IFR   Very Intensive IFR
Visi :
Ceiling :
>= 8 km
>= 3000ft
5 to 8 km
1000 to 3000 ft
1500m to 5 km
500 to 1000 ft
800 to 1500m
200 to 500 ft
< 800m
< 200 ft
Symbols :   Thunderstorms  Fog  Heavy snow  Heavy precipitations  Wind > 20 kt






- Airport Elevation : 780 ft
- IATA code : YHM


CYHM - John C. Munro Hamilton International

CURRENT METAR :
  • 261500Z 32005KT 6SM -DZ BR FEW006 BKN030 OVC038 05/04 A3010 RMK SF2SC4SC2 SLP200

EXPIRED METARs :
  • 261443Z 32003KT 6SM -DZ BR FEW014 SCT022 OVC032 05/04 A3009 RMK SF2SC2SC4 SLP199
  • 261400Z 04003KT 12SM BKN033 OVC070 05/03 A3008 RMK SC6AC2 SLP195
  • 261300Z 01004KT 12SM FEW035 BKN050 OVC080 04/03 A3009 RMK SC2SC5AC1 SLP197
  • 261236Z 02004KT 10SM -DZ FEW014 SCT025 BKN035 OVC080 04/03 A3009 RMK SF2SC2SC3AC1 SLP199

TAF TAF CYHM
Valid from the 26 at 12:00 until the 27 at 12:00 UTC


261138Z 2612/2712 06008KT 6SM -SHRA BR OVC025
TEMPO 2612/2616 2SM -RA BR OVC008
FM261600 36008KT P6SM -SHRA BKN008 OVC050
FM262000 30008KT P6SM SCT020 OVC050
PROB30 2709/2712 3/4SM BR RMK NXT FCST BY 261800Z
CZYZ FIR / North America



MET'MAP, your aeronautical weather chart ! - Copyright ORBIFLY December 2007 - Disclaimer

ORBIFLY MET'MAP TEAM :

Programming & Development : Alexandra Zaïnal
Concept & original design : Baudouin d'Aumeries
Assistance for programming : Marc-Olivier Méhu
Technical & hardware support : Manuel Goepfert

Contact : metmap@orbifly.com




SOURCES & CREDITS :

   NOAA       Earth
Advisory